YSSYYBNA

Guest
Details From YSSY - Sydney Intl
To YBNA - Ballina/Byron Gateway
Flight Number -
Tags generated
Created
Modified
Stats Distance 334 nm / 619 km
Max Altitude 27,200 ft / 8,291 m
Waypoints 5
Social Downloads 1
Likes 0
Share VATSIM

Download

Looking for another format? Having issues loading an existing format? Contact us
Advertisement - Login to hide

Notes

Basic altitude profile: - Ascent Rate: 1600ft/min - Ascent Speed: 200kts - Cruise Altitude: 37000ft - Cruise Speed: 240kts - Descent Rate: 1000ft/min - Descent Speed: 160kts Options: - Use NATs: yes - Use PACOTS: yes - Use low airways: yes - Use high airways: yes

Route

YSSY WLM H185 BANDA Y43 BERNI YBNA

ID Type Via Altitude Latitude Longitude Leg Dist Tot Dist Heading (true) Name
O YSSY APT - 0 ft / 0 m -33.94927˚ 151.18135˚ - 0 nm - Sydney Intl
WLM NDB - 27,100 ft / 8,260 m -32.80335˚ 151.82878˚ 76 nm 76 nm 25° / 25° WILLIAMTOWN NDB
BANDA FIX H185 (AWY-HI) 27,200 ft / 8,291 m -30.79972˚ 152.57306˚ 126 nm 202 nm 18° / 17° -
BERNI FIX Y43 (AWY-LO) 17,000 ft / 5,182 m -28.83833˚ 153.46528˚ 126 nm 328 nm 22° / 21° -
O YBNA APT - 0 ft / 0 m -28.83331˚ 153.56121˚ 5 nm 333 nm 87° / 87° Ballina/Byron Gateway

Altitude Profile

Advertisement - Login to hide

Weather


0- 5 10 15 20 25 30 35+ Temperature / ° C

Clouds and Precipitation
Forecast for 2018-05-27 00:00 UTC. Updated 28 minutes ago

Ground ~20,000 ft ~40,000 ft Winds

YSSY

Details ICAO YSSY (SYD)
Name Sydney Intl
Region Australia
Timezone Australia/Sydney (UTC+10.0)
Stats Elevation 21 ft / 6 m (AMSL)
Location -33.949273° 151.181347°
Runways 3
Magnetic Variation 12.604° E

METAR

YSSY 262330Z 30008KT CAVOK 16/10 Q1029 NOSIG

Decode

TAF

TAF AMD YSSY 262010Z 2620/2724 29008KT CAVOK FM270400 03010KT CAVOK FM271100 29008KT CAVOK

Decode

Departure Runways

ID Width Length Bearing (true) Bearing (mag) Surface Threshold Offset Overrun Length
07 148 ft / 45 m 8,285 ft / 2,525 m 74.13° 61.53° Asphalt 0 ft / 0 m 0 ft / 0 m
16L 148 ft / 45 m 8,018 ft / 2,444 m 167.81° 155.21° Asphalt 758 ft / 231 m 0 ft / 0 m
16R 148 ft / 45 m 13,033 ft / 3,973 m 167.86° 155.26° Asphalt 279 ft / 85 m 0 ft / 0 m
25 148 ft / 45 m 8,285 ft / 2,525 m 254.12° 241.52° Asphalt 324 ft / 99 m 0 ft / 0 m
34L 148 ft / 45 m 13,033 ft / 3,973 m 347.85° 335.25° Asphalt 0 ft / 0 m 0 ft / 0 m
34R 148 ft / 45 m 8,018 ft / 2,444 m 347.81° 335.21° Asphalt 125 ft / 38 m 0 ft / 0 m

YBNA

Details ICAO YBNA (BNK)
Name Ballina/Byron Gateway
Region Australia
Timezone Australia/Sydney (UTC+10.0)
Stats Elevation 6 ft / 2 m (AMSL)
Location -28.833306° 153.561207°
Runways 1
Magnetic Variation 11.559° E

METAR

YBNA 262300Z AUTO 25007KT 9999 // OVC064 18/15 Q1027

Decode

TAF

Not found

Destination Runways

ID Width Length Bearing (true) Bearing (mag) Surface Threshold Offset Overrun Length
06 98 ft / 30 m 6,241 ft / 1,902 m 73.50° 61.94° Asphalt 0 ft / 0 m 0 ft / 0 m
24 98 ft / 30 m 6,241 ft / 1,902 m 253.50° 241.94° Asphalt 0 ft / 0 m 0 ft / 0 m

Popular Alternatives